createdAt,value
2023-10-23T00:00:44.591Z,95.28
2023-10-23T00:03:11.230Z,94.72
2023-10-23T00:05:38.237Z,93.95
2023-10-23T00:08:04.840Z,93.32
2023-10-23T00:10:31.487Z,95.29
2023-10-23T00:12:58.016Z,94.87
2023-10-23T00:15:24.666Z,94.21
2023-10-23T00:17:51.265Z,93.93
2023-10-23T00:20:17.817Z,94.56
2023-10-23T00:22:44.291Z,94.17
2023-10-23T00:25:10.782Z,94.23
2023-10-23T00:27:37.407Z,94.54
2023-10-23T00:30:04.349Z,94.16
2023-10-23T00:32:30.883Z,93.93
2023-10-23T00:34:57.423Z,94.29
2023-10-23T00:37:23.906Z,95.29
2023-10-23T00:39:50.354Z,94.17
2023-10-23T00:42:16.885Z,94.61
2023-10-23T00:44:43.339Z,94.84
2023-10-23T00:47:11.402Z,94.59
2023-10-23T00:49:38.669Z,94.81
2023-10-23T00:52:06.457Z,94.38
2023-10-23T00:54:34.186Z,93.63
2023-10-23T00:57:00.868Z,94.14
2023-10-23T00:59:27.419Z,94.14
2023-10-23T01:01:54.954Z,95.41
2023-10-23T01:04:22.038Z,95.14
2023-10-23T01:06:48.684Z,95.59
2023-10-23T01:09:15.361Z,95.48
2023-10-23T01:11:41.890Z,94.60
2023-10-23T01:14:08.461Z,94.84
2023-10-23T01:16:34.985Z,95.34
2023-10-23T01:19:01.704Z,95.81
2023-10-23T01:21:28.292Z,95.57
2023-10-23T01:23:57.997Z,95.63
2023-10-23T01:26:24.452Z,95.56
2023-10-23T01:28:50.948Z,94.31
2023-10-23T01:31:17.898Z,94.80
2023-10-23T01:33:44.487Z,95.28
2023-10-23T01:36:11.034Z,95.38
2023-10-23T01:38:37.472Z,95.05
2023-10-23T01:41:03.961Z,94.67
2023-10-23T01:43:30.406Z,95.08
2023-10-23T01:45:58.826Z,95.87
2023-10-23T01:48:25.394Z,94.72
2023-10-23T01:50:51.932Z,95.29
2023-10-23T01:53:19.471Z,94.88
2023-10-23T01:55:46.006Z,95.17
2023-10-23T01:58:12.482Z,96.09
2023-10-23T02:00:39.001Z,96.33
2023-10-23T02:03:05.700Z,94.95
2023-10-23T02:05:32.366Z,94.92
2023-10-23T02:07:59.817Z,94.42
2023-10-23T02:10:26.411Z,94.86
2023-10-23T02:12:52.945Z,95.64
2023-10-23T02:15:19.438Z,95.98
2023-10-23T02:17:46.179Z,96.36
2023-10-23T02:20:12.809Z,95.12
2023-10-23T02:22:39.338Z,95.79
2023-10-23T02:25:06.752Z,95.87
2023-10-23T02:27:33.314Z,95.79
2023-10-23T02:29:59.844Z,94.55
2023-10-23T02:32:26.471Z,94.18
2023-10-23T02:34:52.978Z,94.65
2023-10-23T02:37:19.514Z,95.34
2023-10-23T02:39:46.110Z,95.28
2023-10-23T02:42:12.608Z,95.86
2023-10-23T02:44:39.094Z,96.21
2023-10-23T02:47:05.673Z,95.83
2023-10-23T02:49:32.223Z,94.75
2023-10-23T02:51:58.730Z,94.82
2023-10-23T02:54:25.304Z,95.19
2023-10-23T02:56:51.895Z,95.11
2023-10-23T02:59:18.362Z,96.67
2023-10-23T03:01:45.614Z,97.82
2023-10-23T03:04:12.202Z,97.15
2023-10-23T03:06:38.810Z,98.41
2023-10-23T03:09:06.058Z,98.88
2023-10-23T03:11:32.712Z,98.49
2023-10-23T03:14:00.073Z,98.92
2023-10-23T03:16:27.333Z,99.27
2023-10-23T03:18:54.669Z,98.58
2023-10-23T03:21:21.269Z,97.85
2023-10-23T03:23:48.213Z,98.08
2023-10-23T03:26:15.514Z,97.69
2023-10-23T03:28:42.071Z,97.44
2023-10-23T03:31:08.560Z,96.77
2023-10-23T03:33:35.149Z,97.63
2023-10-23T03:36:01.701Z,96.55
2023-10-23T03:38:28.303Z,96.84
2023-10-23T03:40:59.891Z,97.40
2023-10-23T03:43:27.115Z,97.65
2023-10-23T03:45:54.194Z,98.23
2023-10-23T03:48:20.894Z,98.26
2023-10-23T03:50:47.473Z,97.00
2023-10-23T03:53:14.023Z,97.89
2023-10-23T03:55:40.540Z,98.20
2023-10-23T03:58:07.047Z,98.72
2023-10-23T04:00:33.766Z,98.61
2023-10-23T04:03:00.361Z,98.75
2023-10-23T04:05:26.902Z,99.26
2023-10-23T04:07:53.456Z,99.34
2023-10-23T04:10:20.093Z,98.24
2023-10-23T04:12:46.611Z,98.13
2023-10-23T04:15:13.163Z,98.17
2023-10-23T04:17:39.665Z,97.91
2023-10-23T04:20:07.577Z,97.83
2023-10-23T04:22:34.099Z,98.30
2023-10-23T04:25:00.573Z,98.54
2023-10-23T04:27:27.158Z,98.45
2023-10-23T04:29:54.531Z,99.17
2023-10-23T04:32:21.049Z,99.14
2023-10-23T04:34:47.513Z,99.41
2023-10-23T04:37:14.012Z,98.72
2023-10-23T04:39:40.694Z,98.45
2023-10-23T04:42:07.392Z,98.18
2023-10-23T04:44:35.127Z,98.97
2023-10-23T04:47:01.681Z,98.83
2023-10-23T04:49:28.173Z,99.33
2023-10-23T04:51:55.016Z,99.42
2023-10-23T04:54:21.528Z,98.41
2023-10-23T04:56:48.078Z,98.53
2023-10-23T04:59:14.634Z,98.87
2023-10-23T05:01:41.252Z,99.06
2023-10-23T05:04:07.870Z,97.82
2023-10-23T05:06:34.420Z,97.45
2023-10-23T05:09:00.940Z,97.32
2023-10-23T05:11:27.504Z,98.45
2023-10-23T05:13:53.945Z,99.68
2023-10-23T05:16:20.647Z,99.08
2023-10-23T05:18:48.782Z,100.00
2023-10-23T05:21:15.427Z,99.18
2023-10-23T05:23:42.775Z,98.79
2023-10-23T05:26:11.644Z,98.83
2023-10-23T05:28:44.613Z,98.51
2023-10-23T05:31:11.293Z,98.59
2023-10-23T05:33:38.534Z,98.40
2023-10-23T05:36:06.813Z,99.10
2023-10-23T05:38:33.567Z,98.17
2023-10-23T05:41:00.801Z,97.33
2023-10-23T05:43:27.792Z,98.10
2023-10-23T05:45:57.874Z,97.97
2023-10-23T05:48:25.205Z,98.90
2023-10-23T05:51:03.326Z,98.48
2023-10-23T05:53:30.469Z,98.77
2023-10-23T05:56:05.585Z,97.32
2023-10-23T05:58:35.482Z,96.99
2023-10-23T06:01:09.545Z,97.15
2023-10-23T06:03:36.466Z,97.32
2023-10-23T06:06:03.687Z,96.75
2023-10-23T06:08:30.422Z,96.31
2023-10-23T06:10:57.049Z,96.87
2023-10-23T06:13:23.592Z,96.74
2023-10-23T06:15:50.369Z,97.14
2023-10-23T06:18:16.956Z,96.72
2023-10-23T06:20:43.436Z,96.37
2023-10-23T06:23:09.931Z,96.86
2023-10-23T06:25:36.510Z,96.19
2023-10-23T06:28:04.551Z,96.36
2023-10-23T06:30:31.256Z,96.54
2023-10-23T06:32:58.036Z,96.82
2023-10-23T06:35:24.639Z,96.74
2023-10-23T06:37:51.526Z,97.06
2023-10-23T06:40:18.086Z,96.90
2023-10-23T06:42:45.118Z,96.18
2023-10-23T06:45:11.857Z,96.65
2023-10-23T06:47:38.604Z,97.11
2023-10-23T06:50:06.358Z,96.44
2023-10-23T06:52:33.847Z,96.09
2023-10-23T06:55:00.645Z,96.35
2023-10-23T06:57:27.257Z,97.21
2023-10-23T06:59:55.728Z,96.87
2023-10-23T07:02:22.897Z,96.88
2023-10-23T07:04:49.526Z,97.24
2023-10-23T07:07:28.623Z,95.87
2023-10-23T07:10:00.396Z,97.02
2023-10-23T07:12:28.182Z,96.85
2023-10-23T07:14:54.763Z,96.96
2023-10-23T07:17:21.436Z,98.65
2023-10-23T07:19:47.929Z,99.09
2023-10-23T07:22:14.415Z,99.13
2023-10-23T07:24:41.080Z,98.82
2023-10-23T07:27:12.553Z,98.59
2023-10-23T07:29:39.467Z,97.95
2023-10-23T07:32:06.493Z,99.06
2023-10-23T07:34:32.997Z,99.07
2023-10-23T07:36:59.898Z,99.15
2023-10-23T07:39:26.553Z,98.50
2023-10-23T07:41:53.090Z,98.50
2023-10-23T07:44:21.745Z,98.59
2023-10-23T07:46:48.839Z,97.94
2023-10-23T07:49:15.580Z,98.44
2023-10-23T07:51:42.198Z,98.56
2023-10-23T07:54:09.239Z,98.00
2023-10-23T07:56:35.716Z,97.31
2023-10-23T07:59:02.412Z,96.37
2023-10-23T08:01:29.023Z,97.33
2023-10-23T08:03:55.850Z,96.29
2023-10-23T08:06:22.523Z,95.33
2023-10-23T08:08:49.096Z,96.70
2023-10-23T08:11:15.663Z,95.83
2023-10-23T08:13:42.249Z,95.26
2023-10-23T08:16:08.897Z,94.89
2023-10-23T08:18:39.738Z,95.07
2023-10-23T08:21:16.106Z,94.62
2023-10-23T08:23:44.853Z,94.62
2023-10-23T08:26:11.565Z,95.48
2023-10-23T08:31:16.673Z,94.15
2023-10-23T08:33:47.648Z,91.75
2023-10-23T08:36:14.206Z,92.78
2023-10-23T08:38:40.718Z,93.35
2023-10-23T08:41:11.179Z,93.97
2023-10-23T08:43:38.269Z,91.89
2023-10-23T08:46:05.831Z,93.54
2023-10-23T08:48:32.519Z,94.69
2023-10-23T08:50:59.479Z,93.12
2023-10-23T08:53:34.792Z,93.44
2023-10-23T08:56:06.383Z,92.45
2023-10-23T08:58:34.538Z,94.52
2023-10-23T09:01:01.257Z,93.84
2023-10-23T09:04:02.411Z,92.07
2023-10-23T09:06:19.385Z,91.74
2023-10-23T09:08:46.554Z,88.18
2023-10-23T09:11:14.829Z,88.79
2023-10-23T09:13:42.439Z,89.05
2023-10-23T09:16:10.856Z,89.38
2023-10-23T09:18:50.781Z,88.48
2023-10-23T09:21:17.496Z,87.31
2023-10-23T09:23:55.032Z,83.76
2023-10-23T09:26:22.899Z,81.16
2023-10-23T09:28:51.512Z,81.58
2023-10-23T09:31:18.128Z,82.26
2023-10-23T09:33:46.243Z,84.42
2023-10-23T09:36:13.728Z,86.34
2023-10-23T09:38:42.338Z,87.65
2023-10-23T09:41:10.843Z,88.26
2023-10-23T09:43:46.239Z,87.47
2023-10-23T09:46:15.639Z,89.55
2023-10-23T09:48:44.434Z,90.04
2023-10-23T09:51:16.276Z,90.45
2023-10-23T09:53:49.820Z,89.76
2023-10-23T09:56:29.954Z,87.75
2023-10-23T09:59:01.209Z,85.30
2023-10-23T10:01:42.335Z,83.68
2023-10-23T10:04:18.609Z,84.16
2023-10-23T10:06:48.472Z,85.07
2023-10-23T10:09:16.649Z,85.32
2023-10-23T10:11:46.798Z,83.90
2023-10-23T10:14:14.098Z,81.68
2023-10-23T10:16:41.394Z,80.21
2023-10-23T10:19:09.357Z,77.52
2023-10-23T10:21:55.889Z,73.42
2023-10-23T10:24:22.726Z,78.42
2023-10-23T10:26:49.947Z,78.81
2023-10-23T10:29:16.453Z,76.74
2023-10-23T10:32:01.298Z,77.39
2023-10-23T10:34:30.894Z,77.58
2023-10-23T10:37:01.150Z,78.85
2023-10-23T10:39:51.697Z,78.64
2023-10-23T10:42:19.642Z,77.95
2023-10-23T10:44:58.999Z,73.91
2023-10-23T10:47:38.273Z,77.80
2023-10-23T10:50:05.395Z,77.71
2023-10-23T10:52:36.570Z,77.22
2023-10-23T10:55:05.598Z,77.26
2023-10-23T10:57:32.796Z,76.94
2023-10-23T11:00:00.282Z,77.79
2023-10-23T11:02:27.617Z,76.53
2023-10-23T11:04:54.171Z,76.23
2023-10-23T11:07:24.149Z,76.45
2023-10-23T11:09:51.960Z,76.67
2023-10-23T11:12:22.325Z,75.76
2023-10-23T11:14:48.942Z,74.99
2023-10-23T11:17:16.052Z,74.09
2023-10-23T11:19:43.515Z,71.39
2023-10-23T11:22:14.696Z,71.94
2023-10-23T11:24:41.962Z,71.43
2023-10-23T11:27:09.070Z,71.47
2023-10-23T11:29:44.593Z,72.10
2023-10-23T11:32:15.196Z,71.98
2023-10-23T11:34:42.625Z,71.66
2023-10-23T11:37:11.078Z,72.16
2023-10-23T11:39:39.361Z,71.53
2023-10-23T11:42:07.202Z,71.16
2023-10-23T11:44:37.332Z,70.72
2023-10-23T11:47:09.513Z,71.63
2023-10-23T11:49:36.174Z,70.24
2023-10-23T11:52:03.766Z,69.30
2023-10-23T11:54:31.445Z,70.66
2023-10-23T11:57:00.289Z,70.09
2023-10-23T11:59:28.398Z,69.32
2023-10-23T12:01:58.476Z,70.06
2023-10-23T12:07:07.287Z,70.93
2023-10-23T12:09:33.877Z,69.38
2023-10-23T12:12:00.465Z,67.16
2023-10-23T12:14:27.021Z,67.72
2023-10-23T12:16:53.498Z,65.93
2023-10-23T12:19:20.716Z,64.83
2023-10-23T12:21:47.380Z,64.48
2023-10-23T12:24:13.902Z,63.81
2023-10-23T12:26:41.298Z,65.98
2023-10-23T12:29:10.723Z,66.98
2023-10-23T12:32:02.013Z,68.16
2023-10-23T12:34:24.485Z,69.21
2023-10-23T12:36:51.135Z,66.58
2023-10-23T12:39:17.627Z,66.96
2023-10-23T12:41:44.295Z,66.90
2023-10-23T12:44:10.786Z,65.74
2023-10-23T12:46:37.402Z,66.78
2023-10-23T12:49:04.106Z,66.35
2023-10-23T12:51:30.726Z,67.05
2023-10-23T12:53:57.179Z,68.79
2023-10-23T12:56:23.685Z,69.09
2023-10-23T12:58:50.221Z,70.52
2023-10-23T13:01:16.830Z,69.56
2023-10-23T13:03:43.374Z,70.01
2023-10-23T13:06:09.911Z,69.87
2023-10-23T13:08:36.369Z,70.46
2023-10-23T13:11:02.890Z,71.92
2023-10-23T13:13:29.524Z,72.28
2023-10-23T13:15:56.228Z,72.68
2023-10-23T13:18:22.777Z,72.71
2023-10-23T13:21:28.768Z,72.94
2023-10-23T13:23:35.810Z,74.08
2023-10-23T13:26:13.510Z,74.26
2023-10-23T13:28:40.837Z,74.91
2023-10-23T13:31:07.447Z,75.02
2023-10-23T13:33:34.114Z,75.85
2023-10-23T13:36:00.679Z,75.41
2023-10-23T13:38:27.387Z,76.09
2023-10-23T13:40:54.100Z,76.73
2023-10-23T13:43:20.668Z,76.31
2023-10-23T13:45:47.340Z,75.90
2023-10-23T13:48:14.046Z,76.81
2023-10-23T13:50:41.851Z,77.19
2023-10-23T13:53:09.267Z,77.05
2023-10-23T13:55:35.954Z,78.20
2023-10-23T13:58:02.660Z,77.89
2023-10-23T14:00:29.187Z,78.63
2023-10-23T14:02:55.718Z,77.86
2023-10-23T14:05:22.399Z,77.00
2023-10-23T14:07:49.043Z,77.84
2023-10-23T14:10:21.575Z,78.21
2023-10-23T14:12:52.119Z,77.77
2023-10-23T14:15:19.341Z,77.90
2023-10-23T14:17:45.830Z,79.22
2023-10-23T14:20:12.701Z,79.88
2023-10-23T14:22:41.018Z,80.09
2023-10-23T14:25:09.659Z,80.39
2023-10-23T14:27:37.045Z,80.25
2023-10-23T14:30:07.431Z,80.10
2023-10-23T14:32:35.491Z,80.01
2023-10-23T14:35:02.591Z,80.00
2023-10-23T14:37:29.651Z,79.22
2023-10-23T14:39:58.695Z,80.00
2023-10-23T14:42:25.850Z,79.39
2023-10-23T14:44:52.372Z,78.44
2023-10-23T14:47:19.086Z,78.44
2023-10-23T14:49:46.108Z,78.55
2023-10-23T14:52:12.692Z,78.92
2023-10-23T14:54:39.212Z,79.55
2023-10-23T14:57:05.820Z,79.18
2023-10-23T14:59:33.248Z,80.20
2023-10-23T15:01:59.919Z,80.02
2023-10-23T15:04:27.271Z,80.06
2023-10-23T15:06:53.820Z,79.38
2023-10-23T15:09:21.341Z,78.26
2023-10-23T15:11:48.626Z,77.37
2023-10-23T15:14:15.257Z,78.65
2023-10-23T15:16:41.780Z,78.50
2023-10-23T15:19:09.718Z,77.91
2023-10-23T15:21:36.166Z,77.80
2023-10-23T15:24:02.813Z,79.69
2023-10-23T15:26:29.320Z,78.78
2023-10-23T15:28:56.081Z,79.42
2023-10-23T15:31:22.757Z,77.88
2023-10-23T15:33:49.325Z,78.24
2023-10-23T15:36:15.953Z,78.81
2023-10-23T15:38:42.650Z,78.92
2023-10-23T15:41:11.651Z,79.10
2023-10-23T15:43:40.209Z,79.90
2023-10-23T15:46:15.051Z,80.66
2023-10-23T15:48:42.393Z,83.95
2023-10-23T15:51:09.395Z,84.42
2023-10-23T15:53:35.921Z,85.06
2023-10-23T15:56:02.516Z,85.53
2023-10-23T15:58:29.642Z,85.45
2023-10-23T16:00:57.728Z,87.34
2023-10-23T16:03:24.887Z,88.25
2023-10-23T16:05:53.502Z,88.10
2023-10-23T16:08:20.020Z,87.97
2023-10-23T16:10:51.188Z,88.29
2023-10-23T16:13:19.396Z,89.43
2023-10-23T16:15:46.996Z,88.35
2023-10-23T16:18:15.997Z,88.45
2023-10-23T16:20:45.804Z,90.46
2023-10-23T16:23:12.575Z,91.01
2023-10-23T16:25:42.936Z,91.35
2023-10-23T16:28:10.857Z,91.08
2023-10-23T16:30:39.097Z,91.78
2023-10-23T16:33:05.774Z,92.85
2023-10-23T16:35:35.196Z,92.19
2023-10-23T16:38:01.734Z,92.11
2023-10-23T16:40:28.376Z,93.75
2023-10-23T16:42:55.005Z,93.61
2023-10-23T16:45:21.743Z,92.99
2023-10-23T16:47:48.260Z,93.29
2023-10-23T16:50:14.857Z,92.86
2023-10-23T16:52:45.780Z,93.34
2023-10-23T16:55:12.656Z,92.74
2023-10-23T16:57:39.988Z,93.72
2023-10-23T17:00:07.055Z,93.45
2023-10-23T17:02:33.799Z,92.83
2023-10-23T17:05:00.739Z,92.88
2023-10-23T17:07:31.231Z,92.45
2023-10-23T17:09:59.546Z,92.40
2023-10-23T17:12:26.138Z,92.17
2023-10-23T17:14:52.702Z,92.03
2023-10-23T17:17:21.775Z,92.19
2023-10-23T17:19:49.463Z,91.97
2023-10-23T17:22:16.346Z,92.75
2023-10-23T17:24:43.017Z,92.36
2023-10-23T17:27:13.795Z,93.97
2023-10-23T17:29:40.926Z,94.52
2023-10-23T17:32:11.092Z,93.99
2023-10-23T17:34:38.314Z,94.11
2023-10-23T17:37:05.263Z,94.62
2023-10-23T17:39:32.271Z,95.30
2023-10-23T17:41:58.925Z,95.44
2023-10-23T17:44:25.428Z,96.16
2023-10-23T17:46:52.979Z,95.30
2023-10-23T17:49:19.894Z,95.30
2023-10-23T17:51:46.647Z,95.77
2023-10-23T17:54:15.706Z,95.72
2023-10-23T17:56:43.048Z,96.85
2023-10-23T17:59:09.658Z,96.60
2023-10-23T18:01:36.200Z,97.90
2023-10-23T18:04:02.909Z,98.93
2023-10-23T18:06:29.463Z,97.77
2023-10-23T18:08:57.025Z,97.35
2023-10-23T18:11:23.604Z,96.27
2023-10-23T18:13:50.122Z,95.22
2023-10-23T18:16:16.750Z,95.03
2023-10-23T18:18:43.266Z,94.74
2023-10-23T18:21:12.118Z,95.83
2023-10-23T18:23:39.009Z,95.98
2023-10-23T18:26:05.529Z,97.33
2023-10-23T18:28:32.908Z,98.81
2023-10-23T18:31:00.999Z,97.68
2023-10-23T18:33:27.738Z,96.94
2023-10-23T18:36:01.220Z,98.05
2023-10-23T18:38:28.544Z,97.69
2023-10-23T18:40:55.958Z,97.60
2023-10-23T18:43:25.870Z,97.67
2023-10-23T18:45:52.609Z,97.49
2023-10-23T18:48:19.200Z,98.21
2023-10-23T18:50:45.734Z,97.34
2023-10-23T18:53:12.261Z,96.17
2023-10-23T18:55:38.827Z,97.12
2023-10-23T18:58:05.499Z,97.85
2023-10-23T19:00:32.092Z,97.53
2023-10-23T19:02:58.731Z,96.10
2023-10-23T19:05:25.344Z,96.29
2023-10-23T19:07:51.919Z,95.21
2023-10-23T19:10:18.695Z,95.12
2023-10-23T19:12:45.240Z,95.76
2023-10-23T19:15:11.802Z,95.38
2023-10-23T19:17:40.918Z,94.26
2023-10-23T19:20:09.222Z,94.25
2023-10-23T19:22:37.133Z,94.80
2023-10-23T19:25:05.169Z,96.35
2023-10-23T19:27:32.286Z,96.14
2023-10-23T19:29:58.964Z,96.42
2023-10-23T19:32:26.198Z,95.99
2023-10-23T19:34:53.201Z,96.56
2023-10-23T19:37:20.058Z,97.00
2023-10-23T19:39:47.010Z,96.78
2023-10-23T19:42:18.921Z,95.50
2023-10-23T19:44:45.752Z,94.70
2023-10-23T19:47:16.059Z,94.64
2023-10-23T19:49:43.955Z,94.02
2023-10-23T19:52:14.348Z,94.04
2023-10-23T19:54:48.322Z,95.19
2023-10-23T19:57:17.928Z,95.15
2023-10-23T19:59:44.559Z,95.29
2023-10-23T20:02:11.533Z,94.47
2023-10-23T20:04:38.465Z,94.00
2023-10-23T20:07:05.299Z,95.34
2023-10-23T20:09:31.893Z,95.09
2023-10-23T20:11:58.860Z,95.22
2023-10-23T20:14:25.537Z,95.46
2023-10-23T20:16:52.220Z,96.09
2023-10-23T20:19:24.688Z,95.63
2023-10-23T20:21:52.728Z,94.04
2023-10-23T20:24:28.642Z,94.01
2023-10-23T20:27:26.391Z,94.03
2023-10-23T20:29:54.176Z,94.13
2023-10-23T20:32:25.806Z,94.97
2023-10-23T20:34:52.465Z,96.04
2023-10-23T20:37:19.140Z,96.63
2023-10-23T20:39:45.672Z,95.09
2023-10-23T20:42:12.145Z,95.19
2023-10-23T20:44:38.927Z,94.75
2023-10-23T20:47:05.927Z,93.93
2023-10-23T20:49:33.625Z,93.80
2023-10-23T20:52:00.262Z,93.30
2023-10-23T20:54:26.760Z,92.27
2023-10-23T20:56:58.435Z,92.16
2023-10-23T20:59:27.654Z,91.94
2023-10-23T21:01:54.344Z,92.62
2023-10-23T21:04:20.894Z,92.54
2023-10-23T21:06:47.426Z,93.22
2023-10-23T21:09:19.822Z,95.84
2023-10-23T21:11:52.195Z,96.21
2023-10-23T21:14:18.778Z,97.06
2023-10-23T21:16:55.762Z,95.80
2023-10-23T21:19:22.679Z,96.13
2023-10-23T21:21:49.709Z,96.31
2023-10-23T21:24:16.359Z,95.95
2023-10-23T21:26:45.417Z,94.97
2023-10-23T21:29:24.319Z,95.95
2023-10-23T21:31:53.141Z,95.41
2023-10-23T21:34:21.652Z,95.59
2023-10-23T21:36:54.413Z,97.63
2023-10-23T21:39:23.186Z,96.82
2023-10-23T21:41:52.364Z,96.05
2023-10-23T21:44:21.382Z,95.76
2023-10-23T21:46:53.821Z,95.02
2023-10-23T21:49:26.354Z,94.78
2023-10-23T21:51:58.549Z,95.75
2023-10-23T21:54:25.354Z,95.07
2023-10-23T21:57:20.189Z,96.76
2023-10-23T21:59:52.744Z,97.30
2023-10-23T22:02:23.120Z,99.82
2023-10-23T22:04:52.276Z,99.49
2023-10-23T22:07:19.329Z,98.83
2023-10-23T22:09:46.280Z,98.03
2023-10-23T22:12:13.440Z,97.99
2023-10-23T22:14:40.076Z,98.85
2023-10-23T22:17:06.807Z,98.63
2023-10-23T22:19:33.520Z,97.76
2023-10-23T22:22:02.227Z,97.21
2023-10-23T22:24:28.769Z,97.57
2023-10-23T22:26:55.630Z,98.32
2023-10-23T22:29:22.356Z,97.88
2023-10-23T22:31:48.845Z,96.59
2023-10-23T22:34:15.468Z,96.77
2023-10-23T22:36:42.010Z,97.16
2023-10-23T22:39:08.547Z,97.77
2023-10-23T22:41:40.098Z,97.17
2023-10-23T22:44:07.362Z,97.12
2023-10-23T22:46:33.958Z,97.99
2023-10-23T22:49:00.544Z,96.52
2023-10-23T22:51:27.431Z,96.05
2023-10-23T22:53:54.090Z,96.67
2023-10-23T22:56:22.226Z,96.47
2023-10-23T22:58:49.023Z,97.25
2023-10-23T23:01:15.832Z,97.28
2023-10-23T23:03:42.869Z,96.66
2023-10-23T23:06:10.716Z,95.50
2023-10-23T23:08:41.939Z,94.96
2023-10-23T23:11:08.651Z,95.24
2023-10-23T23:13:35.551Z,96.54
2023-10-23T23:16:05.357Z,96.28
2023-10-23T23:18:33.854Z,96.33
2023-10-23T23:21:03.197Z,97.12
2023-10-23T23:23:29.802Z,96.97
2023-10-23T23:25:56.395Z,95.90
2023-10-23T23:28:22.885Z,95.15
2023-10-23T23:30:49.425Z,94.99
2023-10-23T23:33:15.867Z,96.76
2023-10-23T23:35:42.345Z,96.93
2023-10-23T23:38:08.819Z,95.45
2023-10-23T23:40:35.333Z,94.62
2023-10-23T23:43:01.952Z,96.08
2023-10-23T23:45:28.483Z,93.82
2023-10-23T23:47:55.113Z,93.78
2023-10-23T23:50:21.676Z,93.66
2023-10-23T23:52:48.169Z,92.46
2023-10-23T23:55:14.738Z,91.80
2023-10-23T23:57:41.240Z,91.95
